Terminal Aerodrome Forecast
Issued by NWS Sioux Falls, SD

Home | Current Version | Previous Version | Graphics & Text | Print | Product List | Glossary On
Versions: 1 2 3 4 5 6 7 8 9 10 11 12 13 14 15 16
000
FTUS43 KFSD 290520
TAFHON
TAF
KHON 290520Z 2906/3006 18009KT P6SM FEW250
     FM291900 15006KT P6SM FEW200
     FM292100 12006KT P6SM SCT090
     FM300200 VRB05KT P6SM BKN070=

USA.gov is the U.S. government's official web portal to all federal, state and local government web resources and services.